Airport View

Enter AWOS ICAO identifier for current METAR.

ex. KFNL

KNSI 051330Z 33016KT 7SM OVC004 14/13 A2994 RMK AO2 T01440133 $

5 Aug 2020 13:52

Other Area AWOS: KNUC - KAVX - KNTD - KOXR

TAF KNTD 0507/0607 VRB06KT 9999 SCT015 QNH2986INS TEMPO 0507/0513 3200 BR BKN008 BECMG 0513/0515 VRB06KT 6000 BR BKN012 QNH2988INS FM051600 VRB06KT 9999 SCT008 QNH2990INS TEMPO 0516/0522 6000 BR BKN008 AUTOMATED SENSOR METWATCH 0507 TIL 0513 T14/0513Z T22/0522Z FS30148